Time;durP1;ratioP1;P1;durP2;ratioP2;P2;SDS_P1;SDS_P2;PMS_P1;PMS_P2;Temp;Humidity;BMP_temperature;BMP_pressure;BME280_temperature;BME280_humidity;BME280_pressure;Samples;Min_cycle;Max_cycle;Signal;HPM_P1;HPM_P2
2023/08/10 00:00:15;;;;;;;40.03;26.42;;;12.60;99.90;;;;;;5074967;28;20447;-84
2023/08/10 00:02:42;;;;;;;290.30;237.57;;;12.60;99.90;;;;;;5074957;28;20478;-84
2023/08/10 00:05:08;;;;;;;118.90;98.72;;;12.60;99.90;;;;;;5075302;28;20017;-84
2023/08/10 00:07:34;;;;;;;123.70;111.05;;;12.50;99.90;;;;;;5076075;28;20024;-84
2023/08/10 00:10:01;;;;;;;24.23;15.90;;;12.50;99.90;;;;;;5061548;28;20569;-83
2023/08/10 00:12:27;;;;;;;26.05;17.55;;;12.40;99.90;;;;;;5076017;28;20021;-83
2023/08/10 00:14:52;;;;;;;25.48;16.48;;;12.30;99.90;;;;;;5075377;28;20049;-83
2023/08/10 00:17:18;;;;;;;237.50;169.00;;;12.30;99.90;;;;;;5074783;28;20032;-83
2023/08/10 00:19:44;;;;;;;50.67;31.42;;;12.30;99.90;;;;;;5074524;28;20082;-84
2023/08/10 00:22:10;;;;;;;37.63;24.77;;;12.30;99.90;;;;;;5074770;28;20048;-83
2023/08/10 00:24:36;;;;;;;136.35;121.97;;;12.20;99.90;;;;;;5075668;28;20039;-83
2023/08/10 00:27:03;;;;;;;634.10;447.17;;;12.20;99.90;;;;;;5074663;28;20032;-82
2023/08/10 00:29:28;;;;;;;457.70;302.92;;;12.20;99.90;;;;;;5074525;28;20039;-82
2023/08/10 00:31:54;;;;;;;309.65;256.17;;;12.20;99.90;;;;;;5075719;28;20021;-82
2023/08/10 00:34:20;;;;;;;80.65;68.05;;;12.20;99.90;;;;;;5075631;28;20030;-82
2023/08/10 00:36:45;;;;;;;28.85;19.75;;;12.20;99.90;;;;;;5083341;28;20040;-83
2023/08/10 00:39:11;;;;;;;26.38;17.58;;;12.10;99.90;;;;;;5074248;28;20064;-82
2023/08/10 00:41:36;;;;;;;29.27;19.83;;;12.10;99.90;;;;;;5074379;28;20016;-82
2023/08/10 00:44:03;;;;;;;26.98;17.60;;;12.10;99.90;;;;;;5074257;28;20070;-83
2023/08/10 00:46:29;;;;;;;26.95;17.05;;;12.10;99.90;;;;;;5074143;28;20111;-82
2023/08/10 00:48:54;;;;;;;22.25;15.55;;;12.10;99.90;;;;;;5073992;28;20071;-82
2023/08/10 00:51:20;;;;;;;25.55;17.70;;;12.10;99.90;;;;;;5074219;28;20108;-82
2023/08/10 00:53:46;;;;;;;28.08;17.70;;;12.10;99.90;;;;;;5075467;28;20060;-83
2023/08/10 00:56:12;;;;;;;24.60;17.17;;;12.10;99.90;;;;;;5072722;28;20432;-83
2023/08/10 00:58:38;;;;;;;25.35;17.20;;;12.10;99.90;;;;;;5074095;28;20020;-83
2023/08/10 01:01:04;;;;;;;25.48;16.92;;;12.10;99.90;;;;;;5074988;28;20075;-84
2023/08/10 01:03:30;;;;;;;25.55;16.60;;;12.00;99.90;;;;;;5074974;28;20012;-84
2023/08/10 01:06:22;;;;;;;29.05;17.77;;;12.00;99.90;;;;;;5075374;28;20397;-83
2023/08/10 01:09:06;;;;;;;34.28;20.38;;;12.10;99.90;;;;;;5066715;28;20097;-83
2023/08/10 01:12:19;;;;;;;69.10;45.85;;;12.10;99.90;;;;;;5060364;28;20537;-84
2023/08/10 01:15:12;;;;;;;73.47;55.55;;;12.10;99.90;;;;;;5074622;28;20044;-83
2023/08/10 01:17:48;;;;;;;45.25;35.10;;;12.10;99.90;;;;;;5073463;28;20041;-83
2023/08/10 01:20:15;;;;;;;22.15;15.43;;;12.10;99.90;;;;;;5073691;28;20103;-84
2023/08/10 01:22:59;;;;;;;30.85;22.30;;;12.10;99.90;;;;;;5073115;28;20379;-84
2023/08/10 01:25:25;;;;;;;22.42;14.00;;;12.10;99.90;;;;;;5073755;28;20501;-83
2023/08/10 01:27:52;;;;;;;20.67;13.18;;;12.00;99.90;;;;;;5072979;28;20031;-82
2023/08/10 01:30:18;;;;;;;23.30;15.18;;;12.00;99.90;;;;;;5074866;28;20024;-83
2023/08/10 01:32:44;;;;;;;19.02;11.93;;;12.00;99.90;;;;;;5074456;28;20078;-84
2023/08/10 01:35:10;;;;;;;37.83;24.55;;;12.00;99.90;;;;;;5073705;28;20024;-83
2023/08/10 01:37:36;;;;;;;63.55;30.92;;;12.00;99.90;;;;;;5074393;28;20040;-85
2023/08/10 01:40:09;;;;;;;45.55;31.80;;;12.00;99.90;;;;;;5073198;28;20035;-83
2023/08/10 01:42:35;;;;;;;49.78;34.47;;;11.90;99.90;;;;;;5072710;28;20074;-82
2023/08/10 01:45:04;;;;;;;42.55;25.48;;;12.00;99.90;;;;;;5072885;28;20024;-83
2023/08/10 01:47:59;;;;;;;47.58;31.42;;;12.00;99.90;;;;;;5072952;28;20390;-82
2023/08/10 01:50:28;;;;;;;30.10;19.67;;;12.10;99.90;;;;;;5073135;28;20428;-83
2023/08/10 01:52:59;;;;;;;109.00;76.47;;;12.10;99.90;;;;;;5074016;28;20115;-83
2023/08/10 01:55:25;;;;;;;46.40;28.08;;;12.10;99.90;;;;;;5072890;28;20013;-83
2023/08/10 01:57:51;;;;;;;31.13;18.27;;;12.10;99.90;;;;;;5073872;28;20119;-83
2023/08/10 02:00:17;;;;;;;33.33;19.48;;;12.10;99.90;;;;;;5074099;28;20021;-83
2023/08/10 02:02:43;;;;;;;30.55;17.27;;;12.10;99.90;;;;;;5072455;28;20498;-83
2023/08/10 02:05:11;;;;;;;27.45;16.13;;;12.10;99.90;;;;;;5074177;28;20363;-84
2023/08/10 02:07:38;;;;;;;26.42;15.27;;;12.10;99.90;;;;;;5073621;28;20058;-82
2023/08/10 02:10:04;;;;;;;27.35;15.90;;;12.10;99.90;;;;;;5057178;28;20029;-83
2023/08/10 02:12:30;;;;;;;27.35;16.10;;;12.10;99.90;;;;;;5067981;28;20024;-82
2023/08/10 02:14:58;;;;;;;27.40;17.02;;;12.10;99.90;;;;;;5072148;28;20044;-82
2023/08/10 02:17:25;;;;;;;26.25;15.00;;;12.10;99.90;;;;;;5073736;28;20182;-82
2023/08/10 02:19:50;;;;;;;31.20;19.13;;;12.10;99.90;;;;;;5072174;28;20049;-82
2023/08/10 02:22:16;;;;;;;25.73;16.10;;;12.00;99.90;;;;;;5072536;28;20111;-82
2023/08/10 02:24:42;;;;;;;29.70;14.43;;;12.00;99.90;;;;;;5072048;28;20373;-82
2023/08/10 02:27:07;;;;;;;28.27;14.20;;;12.00;99.90;;;;;;5072424;28;20028;-82
2023/08/10 02:29:33;;;;;;;31.45;13.80;;;11.90;99.90;;;;;;5072086;28;20412;-82
2023/08/10 02:32:00;;;;;;;41.55;17.40;;;12.00;99.90;;;;;;5072258;28;20024;-82
2023/08/10 02:34:26;;;;;;;33.40;15.93;;;11.90;99.90;;;;;;5071845;28;20024;-82
2023/08/10 02:36:51;;;;;;;45.33;15.48;;;11.90;99.90;;;;;;5071649;28;20165;-82
2023/08/10 02:39:17;;;;;;;42.75;16.55;;;11.90;99.90;;;;;;5072036;28;20500;-82
2023/08/10 02:41:43;;;;;;;28.60;14.10;;;11.80;99.90;;;;;;5071867;28;20021;-82
2023/08/10 02:44:08;;;;;;;51.33;14.30;;;11.80;99.90;;;;;;5058572;28;20079;-82
2023/08/10 02:46:34;;;;;;;44.05;16.48;;;11.80;99.90;;;;;;5072025;28;20111;-82
2023/08/10 02:48:59;;;;;;;59.17;16.25;;;11.70;99.90;;;;;;5073390;28;20020;-82
2023/08/10 02:51:25;;;;;;;86.00;18.58;;;11.80;99.90;;;;;;5071912;28;20081;-82
2023/08/10 02:53:51;;;;;;;49.50;13.88;;;11.70;99.90;;;;;;5071666;28;20048;-83
2023/08/10 02:56:16;;;;;;;41.47;13.98;;;11.70;99.90;;;;;;5071950;28;20120;-84
2023/08/10 02:58:42;;;;;;;95.18;18.40;;;11.70;99.90;;;;;;5071657;28;20027;-82
2023/08/10 03:01:08;;;;;;;71.55;17.90;;;11.70;99.90;;;;;;5072995;28;20429;-82
2023/08/10 03:03:34;;;;;;;102.45;16.33;;;11.70;99.90;;;;;;5071324;28;20077;-84
2023/08/10 03:06:00;;;;;;;107.43;17.42;;;11.60;99.90;;;;;;5071610;28;20115;-83
2023/08/10 03:08:26;;;;;;;44.65;13.55;;;11.60;99.90;;;;;;5071556;28;20032;-85
2023/08/10 03:10:52;;;;;;;52.25;13.57;;;11.50;99.90;;;;;;5072982;28;20051;-83
2023/08/10 03:13:17;;;;;;;106.43;16.20;;;11.60;99.90;;;;;;5072867;28;20390;-84
2023/08/10 03:15:43;;;;;;;110.07;20.70;;;11.60;99.90;;;;;;5059631;28;20799;-83
2023/08/10 03:18:09;;;;;;;57.83;15.25;;;11.60;99.90;;;;;;5070701;28;20020;-83
2023/08/10 03:20:34;;;;;;;170.00;52.13;;;11.60;99.90;;;;;;5071094;28;20019;-83
2023/08/10 03:23:00;;;;;;;126.85;25.33;;;11.60;99.90;;;;;;5072491;28;20024;-84
2023/08/10 03:25:26;;;;;;;149.68;18.13;;;11.50;99.90;;;;;;5072876;28;20099;-82
2023/08/10 03:27:51;;;;;;;130.20;18.02;;;11.50;99.90;;;;;;5072486;28;20021;-82
2023/08/10 03:30:17;;;;;;;196.10;129.98;;;11.50;99.90;;;;;;5071455;28;20024;-82
2023/08/10 03:32:43;;;;;;;184.27;157.48;;;11.50;99.90;;;;;;5070996;28;20013;-82
2023/08/10 03:35:08;;;;;;;75.82;51.17;;;11.50;99.90;;;;;;5071475;28;20031;-82
2023/08/10 03:37:34;;;;;;;89.97;22.38;;;11.50;99.90;;;;;;5072517;28;20040;-82
2023/08/10 03:40:00;;;;;;;200.43;23.15;;;11.60;99.90;;;;;;5072684;28;20025;-83
2023/08/10 03:42:25;;;;;;;145.05;18.35;;;11.60;99.90;;;;;;5071032;28;20017;-83
2023/08/10 03:44:54;;;;;;;94.05;13.63;;;11.50;99.90;;;;;;5072617;28;20021;-82
2023/08/10 03:47:21;;;;;;;82.10;13.35;;;11.40;99.90;;;;;;5070987;28;20161;-82
2023/08/10 03:49:46;;;;;;;106.28;15.00;;;11.50;99.90;;;;;;5070934;28;20423;-82
2023/08/10 03:52:12;;;;;;;142.55;24.27;;;11.50;99.90;;;;;;5072576;28;20181;-82
2023/08/10 03:54:37;;;;;;;77.47;17.13;;;11.50;99.90;;;;;;5072262;28;20382;-82
2023/08/10 03:57:03;;;;;;;116.90;15.38;;;11.50;99.90;;;;;;5071108;28;20125;-82
2023/08/10 03:59:29;;;;;;;131.50;13.45;;;11.50;99.90;;;;;;5070919;28;20369;-82
2023/08/10 04:01:54;;;;;;;94.45;15.10;;;11.40;99.90;;;;;;5071333;28;20404;-84
2023/08/10 04:04:20;;;;;;;108.50;66.05;;;11.40;99.90;;;;;;5070766;28;20469;-82
2023/08/10 04:06:45;;;;;;;213.73;139.32;;;11.40;99.90;;;;;;5070902;28;20025;-83
2023/08/10 04:09:11;;;;;;;108.90;16.88;;;11.40;99.90;;;;;;5070753;28;20441;-83
2023/08/10 04:11:37;;;;;;;88.82;36.58;;;11.30;99.90;;;;;;5071027;28;20017;-84
2023/08/10 04:14:02;;;;;;;115.57;55.30;;;11.30;99.90;;;;;;5073833;28;20044;-82
2023/08/10 04:16:28;;;;;;;104.15;19.58;;;11.40;99.90;;;;;;5061409;28;20040;-82
2023/08/10 04:18:54;;;;;;;131.30;32.25;;;11.40;99.90;;;;;;5068657;28;20017;-82
2023/08/10 04:21:21;;;;;;;199.23;161.65;;;11.40;99.90;;;;;;5072514;28;20070;-83
2023/08/10 04:23:46;;;;;;;109.80;31.33;;;11.40;99.90;;;;;;5070807;28;20017;-82
2023/08/10 04:26:12;;;;;;;56.65;19.33;;;11.50;99.90;;;;;;5072517;28;20036;-82
2023/08/10 04:28:38;;;;;;;31.92;13.40;;;11.50;99.90;;;;;;5070847;28;20016;-83
2023/08/10 04:31:03;;;;;;;75.60;33.65;;;11.50;99.90;;;;;;5075057;28;20021;-83
2023/08/10 04:33:31;;;;;;;105.50;56.67;;;11.50;99.90;;;;;;5074164;28;20020;-83
2023/08/10 04:35:57;;;;;;;61.13;41.85;;;11.50;99.90;;;;;;5075882;28;21979;-82
2023/08/10 04:38:23;;;;;;;37.63;10.10;;;11.50;99.90;;;;;;5075955;28;20029;-82
2023/08/10 04:40:48;;;;;;;30.63;10.27;;;11.40;99.90;;;;;;5074462;28;20032;-82
2023/08/10 04:43:14;;;;;;;27.55;9.43;;;11.50;99.90;;;;;;5075633;28;20024;-83
2023/08/10 04:45:41;;;;;;;33.00;16.88;;;11.50;99.90;;;;;;5075557;28;20078;-83
2023/08/10 04:48:07;;;;;;;25.08;13.00;;;11.50;99.90;;;;;;5074222;28;20039;-84
2023/08/10 04:50:32;;;;;;;25.13;12.43;;;11.50;99.90;;;;;;5075313;28;20017;-82
2023/08/10 04:52:58;;;;;;;10.82;7.10;;;11.50;99.90;;;;;;5074244;28;20024;-82
2023/08/10 04:55:25;;;;;;;11.57;7.80;;;11.60;99.90;;;;;;5073883;28;20541;-82
2023/08/10 04:57:52;;;;;;;35.67;8.65;;;11.60;99.90;;;;;;5073554;28;20032;-82
2023/08/10 05:00:18;;;;;;;16.60;7.95;;;11.70;99.90;;;;;;5074918;28;20024;-82
2023/08/10 05:02:43;;;;;;;16.10;8.15;;;11.60;99.90;;;;;;5073313;28;20020;-83
2023/08/10 05:05:10;;;;;;;13.07;7.20;;;11.70;99.90;;;;;;5073976;28;20404;-82
2023/08/10 05:07:37;;;;;;;32.53;9.52;;;11.80;99.90;;;;;;5060168;28;20055;-82
2023/08/10 05:10:05;;;;;;;42.30;11.57;;;11.70;99.90;;;;;;5074690;28;20474;-81
2023/08/10 05:12:31;;;;;;;29.08;8.70;;;11.70;99.90;;;;;;5074438;28;20025;-82
2023/08/10 05:14:57;;;;;;;64.18;56.08;;;11.70;99.90;;;;;;5073434;28;20074;-83
2023/08/10 05:17:22;;;;;;;33.13;18.27;;;11.80;99.90;;;;;;5074597;28;20375;-82
2023/08/10 05:19:48;;;;;;;19.40;9.48;;;11.80;99.90;;;;;;5073381;28;20028;-82
2023/08/10 05:22:13;;;;;;;24.23;18.42;;;11.80;99.90;;;;;;5053389;28;20082;-82
2023/08/10 05:24:39;;;;;;;54.88;36.42;;;11.90;99.90;;;;;;5070237;28;20036;-83
2023/08/10 05:27:05;;;;;;;29.50;19.55;;;11.90;99.90;;;;;;5070836;28;20421;-83
2023/08/10 05:29:31;;;;;;;22.67;13.93;;;12.00;99.90;;;;;;5071850;28;20024;-82
2023/08/10 05:31:56;;;;;;;41.50;31.20;;;12.00;99.90;;;;;;5072703;28;20509;-82
2023/08/10 05:34:22;;;;;;;26.23;17.27;;;12.00;99.90;;;;;;5071782;28;20028;-80
2023/08/10 05:36:47;;;;;;;16.58;11.20;;;12.10;99.90;;;;;;5069907;28;20032;-82
2023/08/10 05:39:13;;;;;;;19.50;10.55;;;12.10;99.90;;;;;;5070981;28;20105;-82
2023/08/10 05:41:39;;;;;;;16.15;10.32;;;12.20;99.90;;;;;;5069236;28;20008;-81
2023/08/10 05:44:05;;;;;;;30.08;23.75;;;12.20;99.90;;;;;;5068606;28;20044;-81
2023/08/10 05:46:31;;;;;;;98.70;88.22;;;12.20;99.90;;;;;;5066098;28;20411;-81
2023/08/10 05:48:56;;;;;;;18.05;12.00;;;12.30;99.90;;;;;;5065039;28;20029;-82
2023/08/10 05:51:22;;;;;;;18.38;10.68;;;12.30;99.90;;;;;;5069426;28;20066;-82
2023/08/10 05:53:47;;;;;;;18.38;11.35;;;12.20;99.90;;;;;;5069372;28;20043;-82
2023/08/10 05:56:13;;;;;;;18.70;11.07;;;12.30;99.90;;;;;;5070977;28;20041;-82
2023/08/10 05:58:39;;;;;;;19.83;9.65;;;12.30;99.90;;;;;;5060706;28;20097;-82
2023/08/10 06:01:05;;;;;;;17.83;10.52;;;12.30;99.90;;;;;;5061457;28;20395;-83
2023/08/10 06:03:31;;;;;;;25.42;11.00;;;12.40;99.90;;;;;;5069411;28;20055;-82
2023/08/10 06:05:56;;;;;;;23.27;11.63;;;12.40;99.90;;;;;;5071564;28;20461;-82
2023/08/10 06:08:23;;;;;;;24.13;11.35;;;12.50;99.90;;;;;;5075284;28;20024;-83
2023/08/10 06:10:51;;;;;;;21.13;10.35;;;12.50;99.90;;;;;;5076763;28;20021;-82
2023/08/10 06:13:18;;;;;;;17.63;10.63;;;12.60;99.90;;;;;;5071713;28;20249;-81
2023/08/10 06:15:45;;;;;;;27.35;11.77;;;12.70;99.90;;;;;;5072999;28;20041;-82
2023/08/10 06:18:11;;;;;;;20.23;11.32;;;12.70;99.90;;;;;;5077922;28;20020;-82
2023/08/10 06:20:37;;;;;;;20.33;11.93;;;12.70;99.90;;;;;;5070967;28;20047;-82
2023/08/10 06:23:02;;;;;;;27.10;19.35;;;12.80;99.90;;;;;;5070639;28;20108;-82
2023/08/10 06:25:30;;;;;;;40.85;34.58;;;12.80;99.90;;;;;;5071621;28;20509;-81
2023/08/10 06:27:57;;;;;;;28.65;19.75;;;12.80;99.90;;;;;;5065055;28;20025;-83
2023/08/10 06:30:23;;;;;;;31.35;27.20;;;12.70;99.90;;;;;;5068019;28;20126;-82
2023/08/10 06:32:49;;;;;;;35.33;29.90;;;12.80;99.90;;;;;;5074569;28;20064;-82
2023/08/10 06:35:15;;;;;;;23.55;14.50;;;12.80;99.90;;;;;;5070663;28;20497;-82
2023/08/10 06:37:42;;;;;;;22.85;17.00;;;12.90;99.90;;;;;;5070920;28;20037;-82
2023/08/10 06:40:08;;;;;;;30.23;16.10;;;13.00;99.90;;;;;;5071288;28;20115;-83
2023/08/10 06:42:35;;;;;;;23.17;14.60;;;13.00;99.90;;;;;;5070126;28;20020;-83
2023/08/10 06:45:03;;;;;;;19.77;12.88;;;13.00;99.90;;;;;;5071015;28;20170;-84
2023/08/10 06:47:32;;;;;;;43.90;39.22;;;13.20;99.90;;;;;;5069519;28;20389;-83
2023/08/10 06:49:59;;;;;;;29.83;26.65;;;13.30;99.90;;;;;;5070910;28;20040;-83
2023/08/10 06:52:25;;;;;;;148.30;134.88;;;13.40;99.90;;;;;;5070953;28;20048;-82
2023/08/10 06:54:52;;;;;;;415.13;351.92;;;13.50;99.90;;;;;;5070195;28;20028;-82
2023/08/10 06:57:21;;;;;;;193.55;172.50;;;13.50;99.90;;;;;;5070435;28;20052;-83
2023/08/10 06:59:47;;;;;;;22.40;18.20;;;13.70;99.90;;;;;;5071827;28;20105;-83
2023/08/10 07:02:13;;;;;;;16.92;11.80;;;13.90;99.90;;;;;;5069477;28;20382;-82
2023/08/10 07:04:39;;;;;;;16.38;12.13;;;14.00;99.90;;;;;;5073038;28;20041;-82
2023/08/10 07:07:06;;;;;;;20.65;15.18;;;14.10;99.90;;;;;;5077627;28;20017;-83
2023/08/10 07:09:31;;;;;;;15.50;11.07;;;14.20;99.90;;;;;;5068760;28;20060;-82
2023/08/10 07:11:57;;;;;;;15.02;12.57;;;14.30;99.90;;;;;;5071787;28;20055;-83
2023/08/10 07:14:23;;;;;;;15.20;11.52;;;14.30;99.90;;;;;;5071247;28;20047;-82
2023/08/10 07:16:48;;;;;;;13.77;9.68;;;14.50;99.90;;;;;;5071124;28;20486;-82
2023/08/10 07:19:14;;;;;;;13.30;10.75;;;14.80;99.90;;;;;;5069370;28;20028;-82
2023/08/10 07:21:39;;;;;;;18.10;10.63;;;14.90;99.90;;;;;;5070393;28;20466;-82
2023/08/10 07:24:05;;;;;;;14.23;10.68;;;14.90;99.90;;;;;;5069376;28;20466;-81
2023/08/10 07:26:32;;;;;;;16.45;11.77;;;15.10;99.90;;;;;;5070927;28;20485;-81
2023/08/10 07:28:57;;;;;;;12.27;8.80;;;15.50;99.90;;;;;;5069980;28;20032;-83
2023/08/10 07:31:26;;;;;;;11.82;7.88;;;15.60;99.90;;;;;;5069084;28;20028;-83
2023/08/10 07:33:51;;;;;;;37.97;34.97;;;15.60;99.90;;;;;;5069847;28;20029;-83
2023/08/10 07:36:17;;;;;;;11.43;10.20;;;15.90;99.90;;;;;;5069335;28;20044;-83
2023/08/10 07:38:43;;;;;;;15.30;13.68;;;16.10;99.90;;;;;;5071298;28;20474;-84
2023/08/10 07:41:11;;;;;;;11.82;7.72;;;16.20;99.90;;;;;;5070852;28;20110;-83
2023/08/10 07:43:37;;;;;;;10.52;8.40;;;16.20;99.90;;;;;;5069879;28;20025;-83
2023/08/10 07:46:02;;;;;;;11.43;8.40;;;16.30;99.90;;;;;;5070669;28;20082;-83
2023/08/10 07:48:28;;;;;;;10.68;8.57;;;16.50;99.90;;;;;;5065458;28;20494;-83
2023/08/10 07:50:54;;;;;;;7.88;6.93;;;16.80;99.90;;;;;;5069762;28;20021;-84
2023/08/10 07:53:20;;;;;;;10.80;8.57;;;17.00;99.90;;;;;;5069754;28;20416;-83
2023/08/10 07:55:46;;;;;;;12.77;8.02;;;17.30;99.90;;;;;;5069781;28;20041;-84
2023/08/10 07:58:14;;;;;;;14.32;8.23;;;17.50;99.90;;;;;;5065587;28;20483;-83
2023/08/10 08:00:41;;;;;;;9.07;7.43;;;17.80;99.90;;;;;;5070008;28;20044;-83
2023/08/10 08:03:08;;;;;;;8.35;6.70;;;17.80;99.90;;;;;;5070682;28;20013;-83
2023/08/10 08:05:37;;;;;;;7.88;6.82;;;18.00;99.90;;;;;;5068741;28;20032;-84
2023/08/10 08:08:04;;;;;;;9.18;7.13;;;18.00;99.90;;;;;;5074039;28;20055;-83
2023/08/10 08:10:29;;;;;;;8.80;6.72;;;18.40;99.90;;;;;;5074846;28;20029;-84
2023/08/10 08:12:55;;;;;;;15.80;13.85;;;18.50;99.90;;;;;;5073989;28;20020;-83
2023/08/10 08:15:21;;;;;;;8.18;6.70;;;18.40;99.80;;;;;;5072393;28;20520;-83
2023/08/10 08:18:25;;;;;;;5.78;5.15;;;18.60;98.90;;;;;;5071363;28;20033;-83
2023/08/10 08:20:51;;;;;;;10.52;6.50;;;18.70;91.50;;;;;;5071481;28;20031;-83
2023/08/10 08:23:16;;;;;;;6.10;5.50;;;18.90;89.50;;;;;;5073188;28;20466;-84
2023/08/10 08:25:42;;;;;;;6.60;5.47;;;19.10;86.40;;;;;;5073178;28;20112;-82
2023/08/10 08:28:08;;;;;;;6.43;5.75;;;19.10;87.70;;;;;;5074094;28;20044;-84
2023/08/10 08:30:33;;;;;;;7.60;5.10;;;19.20;94.90;;;;;;5072352;28;20032;-84
2023/08/10 08:32:59;;;;;;;8.38;5.50;;;19.40;84.70;;;;;;5073281;28;20170;-84
2023/08/10 08:35:26;;;;;;;7.03;5.60;;;19.50;80.70;;;;;;5075094;28;20534;-82
2023/08/10 08:37:52;;;;;;;6.70;5.20;;;19.70;79.20;;;;;;5065326;28;20117;-81
2023/08/10 08:40:18;;;;;;;9.88;4.97;;;19.80;88.10;;;;;;5075599;28;20021;-81
2023/08/10 08:42:47;;;;;;;6.07;5.07;;;19.70;82.50;;;;;;5074491;28;20024;-82
2023/08/10 08:45:13;;;;;;;7.65;4.97;;;19.50;79.50;;;;;;5074301;28;20020;-84
2023/08/10 08:47:40;;;;;;;6.03;4.28;;;19.30;83.00;;;;;;5073898;28;20024;-82
2023/08/10 08:50:07;;;;;;;3.53;3.22;;;19.00;81.60;;;;;;5074696;28;20017;-85
2023/08/10 08:52:32;;;;;;;4.57;3.72;;;18.80;77.70;;;;;;5073582;28;20043;-84
2023/08/10 08:54:58;;;;;;;3.97;2.70;;;18.80;78.40;;;;;;5074604;28;20021;-84
2023/08/10 08:57:24;;;;;;;4.00;2.85;;;18.70;74.80;;;;;;5072661;28;20085;-84
2023/08/10 08:59:49;;;;;;;3.88;2.88;;;18.70;77.50;;;;;;5075990;28;20025;-84
2023/08/10 09:02:15;;;;;;;4.18;3.83;;;18.70;79.40;;;;;;5081050;28;20051;-84
2023/08/10 09:04:41;;;;;;;6.13;4.13;;;18.50;80.70;;;;;;5086800;28;20016;-84
2023/08/10 09:07:07;;;;;;;6.18;3.40;;;18.40;80.80;;;;;;5084835;28;20017;-84
2023/08/10 09:09:34;;;;;;;3.83;3.00;;;18.30;82.10;;;;;;5083390;28;20066;-84
2023/08/10 09:12:32;;;;;;;3.67;2.70;;;18.20;81.90;;;;;;5082415;28;20543;-84
2023/08/10 09:15:03;;;;;;;4.97;2.63;;;18.20;79.90;;;;;;5085559;28;20060;-85
2023/08/10 09:17:33;;;;;;;2.25;2.10;;;18.30;77.10;;;;;;5074227;28;20032;-84
2023/08/10 09:19:59;;;;;;;3.25;2.42;;;18.40;75.50;;;;;;5062063;28;20025;-85
2023/08/10 09:22:36;;;;;;;2.22;2.00;;;18.80;73.70;;;;;;5073881;28;20467;-85
2023/08/10 09:25:04;;;;;;;7.88;2.58;;;19.30;71.70;;;;;;5074995;28;20058;-85
2023/08/10 09:27:30;;;;;;;2.47;2.28;;;19.60;68.30;;;;;;5074682;28;20031;-83
2023/08/10 09:29:57;;;;;;;3.72;2.22;;;19.90;69.00;;;;;;5073848;28;20059;-86
2023/08/10 09:32:24;;;;;;;2.80;2.60;;;20.10;69.40;;;;;;5072728;28;20055;-86
2023/08/10 09:34:49;;;;;;;3.22;2.92;;;20.30;71.50;;;;;;5073733;28;20025;-87
2023/08/10 09:37:15;;;;;;;2.10;1.90;;;20.50;70.60;;;;;;5072694;28;20032;-85
2023/08/10 09:39:41;;;;;;;3.20;2.00;;;20.50;67.30;;;;;;5073553;28;20024;-87
2023/08/10 09:42:06;;;;;;;2.15;1.42;;;20.50;66.70;;;;;;5073756;28;20458;-86
2023/08/10 09:44:50;;;;;;;2.00;1.17;;;20.20;63.00;;;;;;5073961;28;20028;-87
2023/08/10 09:47:17;;;;;;;2.53;1.80;;;20.00;61.10;;;;;;5077464;28;20584;-86
2023/08/10 09:49:55;;;;;;;2.03;1.80;;;19.90;59.90;;;;;;5071639;28;20017;-86
2023/08/10 09:52:22;;;;;;;3.67;1.77;;;20.10;61.00;;;;;;5072832;28;20541;-86
2023/08/10 09:54:50;;;;;;;2.55;1.60;;;20.20;58.60;;;;;;5074146;28;20021;-87
2023/08/10 09:57:17;;;;;;;2.85;1.90;;;20.20;56.20;;;;;;5073110;28;20032;-87
2023/08/10 09:59:43;;;;;;;2.67;1.80;;;20.10;56.40;;;;;;5074090;28;20473;-87
2023/08/10 10:02:11;;;;;;;1.83;1.50;;;19.90;58.70;;;;;;5060267;28;20116;-87
2023/08/10 10:04:40;;;;;;;2.75;1.58;;;19.70;60.60;;;;;;5073020;28;20408;-85
2023/08/10 10:07:07;;;;;;;2.00;1.10;;;19.50;56.80;;;;;;5074105;28;20366;-86
2023/08/10 10:09:38;;;;;;;1.35;1.23;;;19.80;56.70;;;;;;5074452;28;20027;-86
2023/08/10 10:12:08;;;;;;;1.48;1.23;;;19.90;57.70;;;;;;5072809;28;20377;-86
2023/08/10 10:14:43;;;;;;;1.98;1.88;;;20.30;58.00;;;;;;5072527;28;20048;-84
2023/08/10 10:17:13;;;;;;;3.53;1.33;;;20.70;60.20;;;;;;5073185;28;20081;-84
2023/08/10 10:19:40;;;;;;;2.60;1.50;;;21.00;59.00;;;;;;5073568;28;20008;-84
2023/08/10 10:22:06;;;;;;;3.08;1.60;;;21.30;58.60;;;;;;5066012;28;20510;-84
2023/08/10 10:24:33;;;;;;;2.55;1.27;;;21.30;58.20;;;;;;5069723;28;20028;-85
2023/08/10 10:27:10;;;;;;;1.50;1.40;;;21.60;59.20;;;;;;5067843;28;20166;-84
2023/08/10 10:29:46;;;;;;;2.53;1.63;;;21.40;57.70;;;;;;5070402;28;20021;-83
2023/08/10 10:32:14;;;;;;;3.17;1.23;;;21.20;58.00;;;;;;5071521;28;20039;-83
2023/08/10 10:34:41;;;;;;;2.22;1.10;;;21.00;56.40;;;;;;5071236;28;20047;-83
2023/08/10 10:37:27;;;;;;;2.08;1.80;;;21.20;56.30;;;;;;5067995;28;20056;-83
2023/08/10 10:39:52;;;;;;;3.00;1.63;;;21.20;59.20;;;;;;5071680;28;20016;-83
2023/08/10 10:42:19;;;;;;;2.13;1.90;;;21.00;60.50;;;;;;5072581;28;20025;-83
2023/08/10 10:45:06;;;;;;;2.15;1.65;;;20.80;60.60;;;;;;5075311;28;20035;-83
2023/08/10 10:47:35;;;;;;;3.15;1.90;;;20.40;60.90;;;;;;5069537;28;20036;-83
2023/08/10 10:50:15;;;;;;;2.08;1.83;;;20.20;60.80;;;;;;5070069;28;20020;-82
2023/08/10 10:52:40;;;;;;;5.10;1.60;;;20.00;60.60;;;;;;5070399;28;20036;-82
2023/08/10 10:55:11;;;;;;;2.20;1.42;;;19.80;61.00;;;;;;5071032;28;20375;-83
2023/08/10 10:57:40;;;;;;;4.35;1.83;;;19.70;61.00;;;;;;5060431;28;20054;-83
2023/08/10 11:00:07;;;;;;;1.95;1.58;;;19.60;59.90;;;;;;5071774;28;20029;-84
2023/08/10 11:02:37;;;;;;;2.47;2.28;;;19.60;59.90;;;;;;5071344;28;20044;-84
2023/08/10 11:05:09;;;;;;;2.65;2.10;;;19.70;61.10;;;;;;5069174;28;20021;-84
2023/08/10 11:07:40;;;;;;;3.67;2.08;;;19.50;63.30;;;;;;5070477;28;20080;-83
2023/08/10 11:10:06;;;;;;;2.38;1.65;;;19.60;64.50;;;;;;5071454;28;20096;-83
2023/08/10 11:12:32;;;;;;;2.72;2.42;;;19.70;63.10;;;;;;5071393;28;20493;-83
2023/08/10 11:14:58;;;;;;;5.50;1.58;;;19.50;63.20;;;;;;5067315;28;20047;-83
2023/08/10 11:17:28;;;;;;;1.95;1.75;;;19.50;63.50;;;;;;5070240;28;20693;-82
2023/08/10 11:19:54;;;;;;;2.85;1.83;;;19.60;61.90;;;;;;5070784;28;20603;-82
2023/08/10 11:22:20;;;;;;;1.98;1.55;;;19.60;62.00;;;;;;5071604;28;20142;-81
2023/08/10 11:24:46;;;;;;;4.15;1.88;;;19.60;62.90;;;;;;5070101;28;20029;-82
2023/08/10 11:27:11;;;;;;;4.55;1.85;;;19.60;62.70;;;;;;5069265;28;20040;-84
2023/08/10 11:29:37;;;;;;;2.10;1.90;;;19.70;61.10;;;;;;5070618;28;20056;-83
2023/08/10 11:32:03;;;;;;;2.03;1.73;;;20.10;61.00;;;;;;5070402;28;20431;-82
2023/08/10 11:34:29;;;;;;;4.68;1.73;;;20.40;58.50;;;;;;5071509;28;20017;-81
2023/08/10 11:36:54;;;;;;;4.10;1.85;;;20.70;58.30;;;;;;5071393;28;20055;-84
2023/08/10 11:39:21;;;;;;;2.47;1.20;;;20.80;60.10;;;;;;5059288;28;20394;-83
2023/08/10 11:41:47;;;;;;;2.85;2.10;;;20.90;58.30;;;;;;5070178;28;20437;-83
2023/08/10 11:44:29;;;;;;;2.70;1.40;;;20.90;57.10;;;;;;5071201;28;20028;-83
2023/08/10 11:46:56;;;;;;;1.73;1.60;;;20.90;58.10;;;;;;5072585;28;20521;-83
2023/08/10 11:49:24;;;;;;;2.17;1.75;;;21.20;59.10;;;;;;5071597;28;20458;-84
2023/08/10 11:51:50;;;;;;;3.67;1.58;;;21.50;59.00;;;;;;5071600;28;20020;-85
2023/08/10 11:54:17;;;;;;;2.08;1.83;;;21.70;56.60;;;;;;5071233;28;20073;-83
2023/08/10 11:56:44;;;;;;;1.77;1.45;;;21.30;55.90;;;;;;5071356;28;20029;-85
2023/08/10 11:59:14;;;;;;;2.17;1.92;;;21.00;57.20;;;;;;5069986;28;20059;-84
2023/08/10 12:01:53;;;;;;;2.05;1.83;;;20.70;58.00;;;;;;5068301;28;20040;-83
2023/08/10 12:04:20;;;;;;;2.75;1.75;;;20.50;57.70;;;;;;5070286;28;20021;-82
2023/08/10 12:06:45;;;;;;;2.58;2.10;;;20.30;58.30;;;;;;5068302;28;20382;-84
2023/08/10 12:09:12;;;;;;;2.17;1.80;;;20.30;58.40;;;;;;5069052;28;20020;-83
2023/08/10 12:11:39;;;;;;;3.10;2.15;;;20.20;58.30;;;;;;5069123;28;20024;-83
2023/08/10 12:14:07;;;;;;;4.85;2.05;;;20.10;58.20;;;;;;5072189;28;20418;-84
2023/08/10 12:16:33;;;;;;;4.30;2.22;;;19.90;58.70;;;;;;5070966;28;20052;-84
2023/08/10 12:18:59;;;;;;;3.92;1.90;;;20.00;60.90;;;;;;5071139;28;20021;-84
2023/08/10 12:21:25;;;;;;;2.85;2.08;;;20.00;60.30;;;;;;5071182;28;20416;-84
2023/08/10 12:23:50;;;;;;;2.08;1.60;;;20.00;59.50;;;;;;5071287;28;20024;-83
2023/08/10 12:26:16;;;;;;;2.33;1.77;;;20.00;60.20;;;;;;5072382;28;20135;-83
2023/08/10 12:28:42;;;;;;;3.03;1.80;;;20.10;60.30;;;;;;5071456;28;20490;-84
2023/08/10 12:31:08;;;;;;;3.30;1.67;;;20.20;59.50;;;;;;5071041;28;20048;-84
2023/08/10 12:33:35;;;;;;;2.60;2.20;;;20.60;58.20;;;;;;5072394;28;20028;-84